Time;durP1;ratioP1;P1;durP2;ratioP2;P2;SDS_P1;SDS_P2;PMS_P1;PMS_P2;Temp;Humidity;BMP_temperature;BMP_pressure;BME280_temperature;BME280_humidity;BME280_pressure;Samples;Min_cycle;Max_cycle;Signal;HPM_P1;HPM_P2
2022/05/25 00:00:28;;;;;;;8.70;4.10;;;11.00;99.90;;;;;;4953461;28;20056;-89
2022/05/25 00:02:55;;;;;;;9.75;4.40;;;11.10;99.90;;;;;;4973256;28;20042;-89
2022/05/25 00:05:23;;;;;;;11.43;4.60;;;11.80;99.90;;;;;;4973250;28;20049;-88
2022/05/25 00:07:52;;;;;;;9.13;3.95;;;11.10;99.90;;;;;;4968225;28;20047;-89
2022/05/25 00:10:25;;;;;;;9.98;4.32;;;11.10;99.90;;;;;;4964954;28;20056;-87
2022/05/25 00:12:55;;;;;;;10.43;4.43;;;11.10;99.90;;;;;;4939665;28;20034;-88
2022/05/25 00:15:24;;;;;;;9.65;4.82;;;;;;;;;;4946143;28;20047;-89
2022/05/25 00:17:56;;;;;;;9.55;4.50;;;11.10;99.90;;;;;;4957530;28;20031;-90
2022/05/25 00:20:34;;;;;;;9.70;4.53;;;11.00;99.90;;;;;;4964438;28;20065;-89
2022/05/25 00:23:00;;;;;;;9.68;4.90;;;11.10;99.90;;;;;;4973238;28;21176;-89
2022/05/25 00:25:32;;;;;;;9.45;4.50;;;11.10;99.90;;;;;;4958692;28;20060;-90
2022/05/25 00:28:16;;;;;;;10.85;5.20;;;11.10;99.90;;;;;;4945494;28;20119;-92
2022/05/25 00:30:44;;;;;;;10.60;4.78;;;11.10;99.90;;;;;;4950903;28;20054;-90
2022/05/25 00:33:14;;;;;;;9.93;5.00;;;11.10;99.90;;;;;;4937143;28;20085;-89
2022/05/25 00:35:45;;;;;;;11.63;5.18;;;11.10;99.90;;;;;;4947507;28;20153;-80
2022/05/25 00:38:13;;;;;;;11.63;4.85;;;10.90;99.90;;;;;;4950526;28;20042;-81
2022/05/25 00:40:45;;;;;;;11.48;4.72;;;11.00;99.90;;;;;;4961491;28;20042;-80
2022/05/25 00:43:15;;;;;;;9.60;4.75;;;11.00;99.90;;;;;;4953776;28;20509;-81
2022/05/25 00:45:46;;;;;;;8.88;4.53;;;11.10;99.90;;;;;;4982094;28;20161;-80
2022/05/25 00:48:24;;;;;;;10.05;5.25;;;11.10;99.90;;;;;;4954806;28;20050;-81
2022/05/25 00:53:51;;;;;;;11.48;5.50;;;10.90;99.90;;;;;;4964853;28;20045;-80
2022/05/25 00:56:25;;;;;;;11.45;5.28;;;11.00;99.90;;;;;;4959830;28;20069;-80
2022/05/25 00:59:20;;;;;;;9.57;4.80;;;11.00;99.90;;;;;;4957395;28;20561;-80
2022/05/25 01:01:49;;;;;;;10.65;5.22;;;11.00;99.90;;;;;;4967863;28;20050;-81
2022/05/25 01:04:18;;;;;;;9.38;5.10;;;11.90;99.90;;;;;;4966589;28;20051;-80
2022/05/25 01:07:38;;;;;;;10.48;5.32;;;10.90;99.90;;;;;;4980848;28;20035;-81
2022/05/25 01:10:22;;;;;;;9.55;5.22;;;11.00;99.90;;;;;;4987203;28;20463;-81
2022/05/25 01:12:57;;;;;;;;;;;10.90;99.90;;;;;;4982793;28;20042;-81
2022/05/25 01:15:59;;;;;;;10.63;5.45;;;10.80;99.90;;;;;;4976702;28;20038;-81
2022/05/25 01:18:47;;;;;;;11.43;6.05;;;10.90;99.90;;;;;;4983444;28;20501;-81
2022/05/25 01:21:23;;;;;;;11.27;5.53;;;12.10;99.90;;;;;;4956680;28;20043;-80
2022/05/25 01:24:07;;;;;;;9.52;5.72;;;10.70;99.90;;;;;;4957960;28;20122;-81
2022/05/25 01:27:17;;;;;;;11.95;6.95;;;10.70;99.90;;;;;;4966382;28;20054;-81
2022/05/25 01:30:16;;;;;;;11.50;6.90;;;10.70;99.90;;;;;;4978065;28;20120;-81
2022/05/25 01:33:27;;;;;;;12.60;7.43;;;10.70;99.90;;;;;;4958697;28;20401;-81
2022/05/25 01:36:22;;;;;;;11.55;6.95;;;10.70;99.90;;;;;;4931357;28;20586;-81
2022/05/25 01:39:01;;;;;;;11.90;6.97;;;10.70;99.90;;;;;;4930641;29;20058;-81
2022/05/25 01:41:52;;;;;;;11.85;7.78;;;10.60;99.90;;;;;;4975140;28;20066;-81
2022/05/25 01:44:31;;;;;;;13.25;7.40;;;10.60;99.90;;;;;;4953196;28;20082;-80
2022/05/25 01:47:10;;;;;;;12.82;7.60;;;10.70;99.90;;;;;;4978920;28;20046;-81
2022/05/25 01:49:53;;;;;;;12.63;7.97;;;10.70;99.90;;;;;;4968525;28;20038;-81
2022/05/25 01:52:45;;;;;;;12.13;7.10;;;10.50;99.90;;;;;;4965108;28;20059;-81
2022/05/25 01:55:26;;;;;;;11.75;7.20;;;10.70;99.90;;;;;;4977173;28;20043;-81
2022/05/25 01:58:08;;;;;;;12.60;7.75;;;10.60;99.90;;;;;;5001307;28;20444;-81
2022/05/25 02:00:46;;;;;;;13.75;7.90;;;10.60;99.90;;;;;;4950894;28;20050;-81
2022/05/25 02:06:11;;;;;;;12.55;7.55;;;10.60;99.90;;;;;;4941729;28;20195;-80
2022/05/25 02:09:04;;;;;;;12.40;7.78;;;11.70;99.90;;;;;;4963179;28;20083;-81
2022/05/25 02:11:45;;;;;;;13.88;8.43;;;10.50;99.90;;;;;;4931597;28;20081;-80
2022/05/25 02:14:32;;;;;;;13.20;8.45;;;10.40;99.90;;;;;;4946101;28;20093;-80
2022/05/25 02:17:10;;;;;;;12.70;8.18;;;;;;;;;;4931756;28;20071;-81
2022/05/25 02:20:01;;;;;;;12.05;7.93;;;10.50;99.90;;;;;;4942849;28;20043;-81
2022/05/25 02:22:45;;;;;;;13.30;8.85;;;10.50;99.90;;;;;;4961424;28;20034;-81
2022/05/25 02:25:27;;;;;;;15.95;9.05;;;10.50;99.90;;;;;;4951619;28;20105;-80
2022/05/25 02:28:28;;;;;;;13.05;8.55;;;10.40;99.90;;;;;;4969470;28;20042;-81
2022/05/25 02:31:01;;;;;;;12.90;8.27;;;10.40;99.90;;;;;;4935429;28;20512;-81
2022/05/25 02:33:42;;;;;;;14.10;8.88;;;10.40;99.90;;;;;;4966962;28;20598;-80
2022/05/25 02:36:10;;;;;;;13.85;9.75;;;10.40;99.90;;;;;;4947583;28;20054;-80
2022/05/25 02:38:41;;;;;;;14.77;9.40;;;10.30;99.90;;;;;;4954548;28;20130;-80
2022/05/25 02:41:31;;;;;;;14.98;9.88;;;10.40;99.90;;;;;;4933039;28;20047;-80
2022/05/25 02:44:02;;;;;;;14.95;9.68;;;10.30;99.90;;;;;;4938213;28;20043;-80
2022/05/25 02:46:33;;;;;;;16.15;9.88;;;10.30;99.90;;;;;;4950446;28;20046;-81
2022/05/25 02:49:02;;;;;;;16.08;9.73;;;10.30;99.90;;;;;;4954379;28;20121;-80
2022/05/25 02:51:30;;;;;;;14.50;10.30;;;11.50;99.90;;;;;;4951307;28;20536;-81
2022/05/25 02:53:56;;;;;;;17.25;10.40;;;10.00;99.90;;;;;;4958906;28;20047;-80
2022/05/25 02:56:22;;;;;;;15.07;9.25;;;10.10;99.90;;;;;;4951634;28;20049;-83
2022/05/25 02:58:53;;;;;;;15.25;9.90;;;10.30;99.90;;;;;;4937974;28;20054;-81
2022/05/25 03:01:19;;;;;;;15.85;10.40;;;10.30;99.90;;;;;;4965507;28;20073;-81
2022/05/25 03:03:45;;;;;;;14.93;10.18;;;10.30;99.90;;;;;;4937643;28;20501;-80
2022/05/25 03:06:11;;;;;;;16.58;10.63;;;10.30;99.90;;;;;;4949342;28;20289;-81
2022/05/25 03:08:37;;;;;;;16.48;10.57;;;10.20;99.90;;;;;;4952677;28;20069;-82
2022/05/25 03:11:04;;;;;;;16.17;10.95;;;10.30;99.90;;;;;;4967910;28;20701;-80
2022/05/25 03:13:35;;;;;;;15.73;10.95;;;10.30;99.90;;;;;;4954346;28;20082;-80
2022/05/25 03:16:03;;;;;;;16.42;10.70;;;10.20;99.90;;;;;;4944224;28;20579;-80
2022/05/25 03:18:52;;;;;;;18.10;10.98;;;10.20;99.90;;;;;;4935670;28;20464;-80
2022/05/25 03:21:20;;;;;;;15.55;10.20;;;10.30;99.90;;;;;;4936661;28;20105;-80
2022/05/25 03:23:57;;;;;;;16.20;10.70;;;10.30;99.90;;;;;;4938474;28;20043;-81
2022/05/25 03:26:28;;;;;;;15.63;10.85;;;10.30;99.90;;;;;;4949254;28;20043;-80
2022/05/25 03:28:57;;;;;;;15.52;10.98;;;11.00;99.90;;;;;;4954004;28;20043;-81
2022/05/25 03:31:23;;;;;;;15.63;10.80;;;10.30;99.90;;;;;;4935127;28;20062;-81
2022/05/25 03:33:54;;;;;;;15.82;10.73;;;10.20;99.90;;;;;;4933159;29;20077;-82
2022/05/25 03:36:22;;;;;;;15.25;10.50;;;10.30;99.90;;;;;;4947369;28;20135;-80
2022/05/25 03:38:48;;;;;;;15.88;10.30;;;10.20;99.90;;;;;;4934116;28;20057;-82
2022/05/25 03:41:21;;;;;;;17.45;10.68;;;10.00;99.90;;;;;;4949645;28;20038;-81
2022/05/25 03:43:50;;;;;;;18.45;10.98;;;10.30;99.90;;;;;;4931158;28;20054;-80
2022/05/25 03:46:23;;;;;;;17.13;11.43;;;10.20;99.90;;;;;;4933671;28;20093;-81
2022/05/25 03:48:52;;;;;;;17.95;11.40;;;10.20;99.90;;;;;;4936680;28;20042;-81
2022/05/25 03:51:18;;;;;;;17.13;10.85;;;11.50;99.90;;;;;;4966179;28;20042;-81
2022/05/25 03:53:47;;;;;;;16.00;11.10;;;10.30;99.90;;;;;;4966242;28;20474;-81
2022/05/25 03:56:13;;;;;;;16.58;10.68;;;10.20;99.90;;;;;;4946525;28;20043;-82
2022/05/25 03:58:46;;;;;;;17.80;11.30;;;10.90;99.90;;;;;;4962649;28;20054;-80
2022/05/25 04:01:25;;;;;;;17.02;10.60;;;10.30;99.90;;;;;;4971618;28;20137;-81
2022/05/25 04:03:55;;;;;;;20.60;11.02;;;10.40;99.90;;;;;;4969683;28;20505;-81
2022/05/25 04:06:20;;;;;;;16.65;10.93;;;10.30;99.90;;;;;;4974789;28;20043;-80
2022/05/25 04:08:46;;;;;;;15.75;10.20;;;10.40;99.90;;;;;;4980916;28;20045;-81
2022/05/25 04:11:12;;;;;;;16.88;10.40;;;10.40;99.90;;;;;;4976904;28;20050;-81
2022/05/25 04:13:47;;;;;;;17.73;10.88;;;10.40;99.90;;;;;;4966607;28;20046;-81
2022/05/25 04:16:13;;;;;;;16.30;10.70;;;10.50;99.90;;;;;;4981908;28;20109;-81
2022/05/25 04:18:45;;;;;;;16.15;10.45;;;10.50;99.90;;;;;;4967116;28;20038;-81
2022/05/25 04:21:20;;;;;;;17.27;10.77;;;11.50;99.90;;;;;;4975819;28;20654;-81
2022/05/25 04:24:00;;;;;;;16.48;10.27;;;10.50;99.90;;;;;;4970368;28;20053;-81
2022/05/25 04:26:30;;;;;;;15.00;10.05;;;10.60;99.90;;;;;;4982927;28;20053;-81
2022/05/25 04:29:02;;;;;;;15.95;10.48;;;10.70;99.90;;;;;;4974292;28;20101;-81
2022/05/25 04:31:31;;;;;;;16.30;9.90;;;10.70;99.90;;;;;;4963110;28;20038;-80
2022/05/25 04:34:06;;;;;;;15.40;9.95;;;11.10;99.90;;;;;;4956276;28;20207;-79
2022/05/25 04:36:38;;;;;;;15.45;9.82;;;10.80;99.90;;;;;;4979144;28;20054;-81
2022/05/25 04:39:04;;;;;;;14.10;9.45;;;10.80;99.90;;;;;;4963759;28;20470;-81
2022/05/25 04:41:34;;;;;;;14.13;9.75;;;10.80;99.90;;;;;;4981926;28;20050;-81
2022/05/25 04:44:00;;;;;;;16.98;9.98;;;10.30;99.90;;;;;;4968715;28;20070;-81
2022/05/25 04:46:29;;;;;;;16.42;8.85;;;11.00;99.90;;;;;;4980574;28;20132;-82
2022/05/25 04:48:57;;;;;;;17.17;9.50;;;;;;;;;;4965788;28;20157;-83
2022/05/25 04:51:49;;;;;;;14.98;9.00;;;11.10;99.90;;;;;;4981759;28;20046;-81
2022/05/25 04:54:18;;;;;;;14.55;9.10;;;11.20;99.90;;;;;;4991237;28;20049;-81
2022/05/25 04:59:30;;;;;;;13.88;8.95;;;11.20;99.90;;;;;;4983312;28;20062;-81
2022/05/25 05:01:58;;;;;;;16.10;8.68;;;11.30;99.90;;;;;;4973953;28;20051;-81
2022/05/25 05:04:39;;;;;;;;;;;;;;;;;;;;;
2022/05/25 05:07:08;;;;;;;16.55;8.88;;;11.40;99.90;;;;;;4976554;28;20422;-82
2022/05/25 05:09:48;;;;;;;18.00;9.00;;;11.50;99.90;;;;;;4976657;28;20050;-82
2022/05/25 05:12:23;;;;;;;13.23;8.95;;;10.40;99.90;;;;;;4967109;28;20086;-84
2022/05/25 05:14:58;;;;;;;13.60;8.40;;;11.70;99.90;;;;;;4973368;28;20043;-81
2022/05/25 05:17:25;;;;;;;14.13;8.63;;;11.60;99.90;;;;;;4968191;28;20068;-83
2022/05/25 05:19:56;;;;;;;12.90;7.97;;;11.80;99.90;;;;;;4981078;28;20043;-84
2022/05/25 05:22:40;;;;;;;12.73;8.25;;;11.80;99.90;;;;;;4964904;28;20440;-82
2022/05/25 05:25:19;;;;;;;14.65;8.57;;;12.00;99.90;;;;;;4983622;28;20386;-82
2022/05/25 05:27:54;;;;;;;14.20;8.65;;;12.00;99.90;;;;;;4985249;28;20154;-82
2022/05/25 05:30:38;;;;;;;15.45;8.52;;;12.00;99.90;;;;;;4967713;28;20038;-83
2022/05/25 05:33:19;;;;;;;12.98;8.48;;;;;;;;;;4963927;28;20074;-81
2022/05/25 05:35:59;;;;;;;13.93;7.93;;;12.20;99.90;;;;;;4974030;28;20093;-81
2022/05/25 05:38:30;;;;;;;13.63;8.45;;;12.20;99.90;;;;;;4983949;28;20058;-82
2022/05/25 05:40:57;;;;;;;13.02;8.77;;;12.30;99.90;;;;;;4985483;28;20054;-81
2022/05/25 05:43:29;;;;;;;13.07;8.05;;;12.30;99.90;;;;;;4987457;28;20046;-82
2022/05/25 05:45:56;;;;;;;14.35;8.50;;;12.40;99.90;;;;;;4961090;28;20039;-81
2022/05/25 05:48:31;;;;;;;13.70;8.15;;;12.50;99.90;;;;;;4975879;28;20051;-82
2022/05/25 05:51:05;;;;;;;14.50;7.97;;;12.50;99.90;;;;;;4971064;28;20113;-82
2022/05/25 05:53:31;;;;;;;14.55;8.63;;;12.50;99.90;;;;;;4952355;28;20043;-82
2022/05/25 05:56:00;;;;;;;12.20;8.23;;;12.60;99.90;;;;;;4960996;28;20379;-82
2022/05/25 05:58:29;;;;;;;14.10;8.65;;;12.70;99.90;;;;;;4968494;28;20233;-83
2022/05/25 06:01:04;;;;;;;14.07;8.15;;;12.70;99.90;;;;;;4956831;28;20043;-83
2022/05/25 06:03:33;;;;;;;13.95;7.97;;;12.80;99.90;;;;;;4939168;28;20534;-82
2022/05/25 06:05:59;;;;;;;17.52;7.93;;;12.90;99.90;;;;;;4973301;28;20082;-82
2022/05/25 06:08:34;;;;;;;13.75;7.60;;;13.00;99.90;;;;;;4940500;28;20089;-82
2022/05/25 06:11:11;;;;;;;14.10;8.13;;;13.10;99.90;;;;;;4940890;28;20078;-81
2022/05/25 06:13:53;;;;;;;12.65;8.15;;;13.20;99.90;;;;;;4955549;28;20481;-82
2022/05/25 06:19:33;;;;;;;13.02;7.63;;;13.20;99.90;;;;;;4970511;28;20038;-82
2022/05/25 06:22:01;;;;;;;12.85;7.65;;;13.40;99.90;;;;;;4933267;28;20127;-84
2022/05/25 06:24:38;;;;;;;12.27;7.50;;;13.50;99.90;;;;;;4937941;28;20066;-82
2022/05/25 06:27:14;;;;;;;11.48;7.60;;;13.50;99.90;;;;;;4951737;28;20074;-82
2022/05/25 06:29:48;;;;;;;12.18;7.50;;;13.70;99.90;;;;;;4951629;28;20134;-82
2022/05/25 06:32:23;;;;;;;12.38;7.88;;;13.80;99.90;;;;;;4935194;28;20043;-82
2022/05/25 06:34:52;;;;;;;11.93;6.93;;;13.80;99.90;;;;;;4936380;28;20046;-83
2022/05/25 06:37:23;;;;;;;13.10;8.13;;;13.90;99.90;;;;;;4930128;28;20046;-83
2022/05/25 06:39:57;;;;;;;13.65;7.68;;;13.90;99.90;;;;;;4935589;28;20047;-81
2022/05/25 06:42:23;;;;;;;13.30;7.43;;;14.10;99.90;;;;;;4969814;28;20053;-82
2022/05/25 06:44:53;;;;;;;12.88;7.60;;;14.10;99.90;;;;;;4954872;28;20126;-81
2022/05/25 06:47:20;;;;;;;12.40;7.30;;;;;;;;;;4952127;28;20448;-81
2022/05/25 06:50:03;;;;;;;11.18;7.00;;;14.40;99.90;;;;;;4960267;28;20068;-83
2022/05/25 06:52:29;;;;;;;12.55;6.85;;;14.30;99.90;;;;;;4947892;28;20051;-81
2022/05/25 06:55:04;;;;;;;12.45;6.30;;;14.50;99.90;;;;;;4933820;29;20055;-81
2022/05/25 06:57:32;;;;;;;11.30;6.00;;;14.00;99.90;;;;;;4933210;29;20414;-82
2022/05/25 07:00:02;;;;;;;11.02;6.68;;;14.60;99.90;;;;;;4945559;28;20063;-82
2022/05/25 07:02:43;;;;;;;11.05;6.07;;;14.70;99.90;;;;;;4955989;28;20050;-82
2022/05/25 07:05:16;;;;;;;12.35;5.80;;;14.70;99.90;;;;;;4976076;28;20071;-82
2022/05/25 07:07:45;;;;;;;11.38;5.90;;;14.70;99.90;;;;;;4926960;28;20045;-82
2022/05/25 07:10:11;;;;;;;13.90;6.78;;;15.00;99.90;;;;;;4951180;28;20066;-82
2022/05/25 07:13:02;;;;;;;10.50;5.75;;;15.00;99.90;;;;;;4939297;28;20089;-82
2022/05/25 07:15:28;;;;;;;10.88;6.00;;;15.10;99.90;;;;;;4935898;28;20405;-81
2022/05/25 07:18:00;;;;;;;12.05;5.90;;;;;;;;;;4936265;28;20046;-82
2022/05/25 07:20:26;;;;;;;11.43;5.35;;;15.30;99.90;;;;;;4936857;28;20081;-82
2022/05/25 07:23:01;;;;;;;11.13;5.20;;;15.40;99.90;;;;;;4913575;28;20080;-81
2022/05/25 07:25:30;;;;;;;11.45;5.80;;;15.50;99.90;;;;;;4925711;28;20057;-82
2022/05/25 07:27:59;;;;;;;9.70;5.25;;;15.50;99.90;;;;;;4921910;28;20043;-81
2022/05/25 07:30:25;;;;;;;9.45;5.00;;;15.50;99.90;;;;;;4956167;28;20055;-82
2022/05/25 07:33:23;;;;;;;11.68;4.97;;;15.70;99.90;;;;;;4982171;28;20038;-82
2022/05/25 07:35:55;;;;;;;9.98;4.78;;;15.80;99.90;;;;;;4977951;28;20038;-82
2022/05/25 07:38:34;;;;;;;10.73;5.07;;;15.60;99.90;;;;;;4971967;28;20050;-82
2022/05/25 07:41:05;;;;;;;11.48;4.93;;;15.90;99.90;;;;;;4971882;28;20559;-82
2022/05/25 07:43:41;;;;;;;11.25;4.90;;;16.00;99.90;;;;;;4985947;28;20057;-81
2022/05/25 07:46:10;;;;;;;9.77;5.05;;;16.10;99.90;;;;;;4987259;28;20453;-82
2022/05/25 07:48:46;;;;;;;11.95;5.30;;;;;;;;;;4965888;28;20078;-82
2022/05/25 07:51:12;;;;;;;10.63;4.95;;;16.30;99.90;;;;;;4960710;28;20408;-83
2022/05/25 07:53:58;;;;;;;10.85;4.88;;;16.20;99.90;;;;;;4967270;28;20443;-83
2022/05/25 07:56:44;;;;;;;10.20;4.03;;;16.40;99.90;;;;;;4971712;28;20042;-83
2022/05/25 07:59:15;;;;;;;8.77;4.07;;;16.50;99.90;;;;;;4963664;28;20062;-81
2022/05/25 08:07:29;;;;;;;10.65;3.78;;;16.60;99.90;;;;;;4970875;28;20502;-83
2022/05/25 08:10:08;;;;;;;7.93;3.10;;;16.70;99.90;;;;;;4988275;28;20382;-83
2022/05/25 08:12:37;;;;;;;8.23;3.30;;;;;;;;;;4963452;28;20034;-82
2022/05/25 08:15:08;;;;;;;9.15;3.50;;;16.70;99.90;;;;;;4965165;28;20053;-82
2022/05/25 08:17:34;;;;;;;8.95;3.92;;;16.80;99.90;;;;;;4963549;28;20437;-82
2022/05/25 08:20:01;;;;;;;8.65;3.85;;;17.20;99.90;;;;;;4974098;28;20050;-82
2022/05/25 08:22:26;;;;;;;9.32;3.55;;;16.90;99.90;;;;;;4982692;28;20046;-82
2022/05/25 08:24:53;;;;;;;8.73;3.47;;;16.90;99.90;;;;;;4964743;28;20129;-82
2022/05/25 08:27:28;;;;;;;9.63;3.58;;;16.80;99.90;;;;;;4977871;28;20445;-82
2022/05/25 08:29:55;;;;;;;7.78;3.20;;;16.90;99.90;;;;;;4981513;28;20047;-82
2022/05/25 08:32:29;;;;;;;10.10;3.60;;;16.80;99.90;;;;;;4964590;28;20043;-82
2022/05/25 08:34:55;;;;;;;9.93;4.03;;;16.90;99.90;;;;;;4958897;28;20049;-83
2022/05/25 08:37:27;;;;;;;10.57;3.70;;;16.90;99.90;;;;;;4979864;28;20043;-84
2022/05/25 08:40:00;;;;;;;11.68;4.05;;;16.90;99.90;;;;;;4972019;28;20437;-82
2022/05/25 08:42:30;;;;;;;8.93;3.50;;;17.10;99.90;;;;;;4977674;28;21503;-82
2022/05/25 08:44:58;;;;;;;8.15;3.30;;;17.20;99.90;;;;;;4978947;28;20042;-83
2022/05/25 08:47:26;;;;;;;9.38;3.38;;;17.40;99.90;;;;;;4986644;28;20038;-82
2022/05/25 08:49:58;;;;;;;8.55;3.25;;;17.50;99.90;;;;;;4973324;28;20042;-82
2022/05/25 08:52:39;;;;;;;8.27;3.00;;;17.70;99.90;;;;;;4985691;28;20045;-83
2022/05/25 08:55:16;;;;;;;7.82;3.13;;;18.00;99.90;;;;;;4969432;28;20052;-82
2022/05/25 08:57:56;;;;;;;9.85;3.63;;;19.30;99.90;;;;;;4985632;28;20042;-83
2022/05/25 09:00:25;;;;;;;8.32;3.50;;;18.20;99.90;;;;;;4981429;28;20077;-82
2022/05/25 09:03:17;;;;;;;7.60;2.75;;;18.20;99.90;;;;;;4965459;28;20544;-81
2022/05/25 09:06:20;;;;;;;7.30;2.60;;;18.20;99.90;;;;;;4972992;28;20134;-81
2022/05/25 09:08:58;;;;;;;7.00;2.20;;;18.10;99.90;;;;;;4952069;28;20058;-81
2022/05/25 09:11:33;;;;;;;7.72;2.65;;;18.10;99.90;;;;;;4955052;28;20046;-83
2022/05/25 09:14:02;;;;;;;7.90;2.65;;;18.20;99.90;;;;;;4965955;28;20477;-82
2022/05/25 09:16:31;;;;;;;6.57;2.28;;;18.20;99.90;;;;;;4987122;28;20049;-83
2022/05/25 09:19:37;;;;;;;7.72;2.50;;;18.00;99.90;;;;;;4986859;28;20045;-82
2022/05/25 09:22:16;;;;;;;7.88;2.70;;;17.90;99.90;;;;;;4971242;28;20054;-83
2022/05/25 09:24:49;;;;;;;9.25;2.78;;;17.70;99.90;;;;;;4971883;28;20467;-83
2022/05/25 09:27:28;;;;;;;6.43;2.50;;;17.50;99.90;;;;;;4970364;28;20085;-81
2022/05/25 09:30:00;;;;;;;8.73;2.58;;;17.20;99.90;;;;;;4958172;28;20494;-81
2022/05/25 09:33:01;;;;;;;;;;;;;;;;;;;;;
2022/05/25 09:35:44;;;;;;;7.55;2.70;;;17.30;99.90;;;;;;4986560;28;20045;-83
2022/05/25 09:38:30;;;;;;;9.80;2.88;;;17.40;99.90;;;;;;4962554;28;20138;-82
2022/05/25 09:41:08;;;;;;;7.90;2.70;;;17.40;99.90;;;;;;4984746;28;20481;-83
2022/05/25 09:43:38;;;;;;;6.85;2.55;;;17.40;99.90;;;;;;4981638;28;20045;-83
2022/05/25 09:46:26;;;;;;;7.40;2.78;;;17.50;99.90;;;;;;4964203;28;20150;-86
2022/05/25 09:49:25;;;;;;;6.25;2.35;;;19.20;99.90;;;;;;4958699;28;20132;-82
2022/05/25 09:55:07;;;;;;;6.90;2.80;;;17.60;99.90;;;;;;4979180;28;20047;-83
2022/05/25 09:58:08;;;;;;;5.80;2.13;;;17.50;99.90;;;;;;4970646;28;20393;-83
2022/05/25 10:01:22;;;;;;;7.45;2.53;;;17.60;99.90;;;;;;4984771;28;20077;-82
2022/05/25 10:03:56;;;;;;;7.35;2.42;;;17.50;99.90;;;;;;4985059;28;20058;-82
2022/05/25 10:06:29;;;;;;;7.55;2.70;;;17.30;99.90;;;;;;4972442;28;20034;-81
2022/05/25 10:09:28;;;;;;;7.15;2.50;;;18.00;99.90;;;;;;4964707;28;20050;-82
2022/05/25 10:12:01;;;;;;;7.20;2.40;;;18.10;99.90;;;;;;4971689;28;20057;-81
2022/05/25 10:14:32;;;;;;;6.68;2.35;;;18.10;99.90;;;;;;4966919;28;20133;-81
2022/05/25 10:17:28;;;;;;;6.82;2.33;;;18.30;99.90;;;;;;4966675;28;20100;-82
2022/05/25 10:20:34;;;;;;;6.93;2.28;;;18.30;99.90;;;;;;4967044;28;20214;-83
2022/05/25 10:23:08;;;;;;;7.63;2.72;;;18.10;99.90;;;;;;4966703;28;20038;-82
2022/05/25 10:25:41;;;;;;;8.18;2.60;;;17.90;99.90;;;;;;4960852;28;20045;-82
2022/05/25 10:28:27;;;;;;;7.20;2.45;;;17.90;99.90;;;;;;4968119;28;20506;-81
2022/05/25 10:37:10;;;;;;;7.50;2.72;;;17.80;99.90;;;;;;4981158;28;20390;-82
2022/05/25 10:40:03;;;;;;;8.52;2.40;;;17.80;99.90;;;;;;4983814;28;20041;-81
2022/05/25 10:42:55;;;;;;;;;;;;;;;;;;;;;
2022/05/25 10:45:34;;;;;;;7.38;2.45;;;16.70;99.90;;;;;;4972897;28;20049;-82
2022/05/25 10:48:27;;;;;;;7.93;2.92;;;17.60;99.90;;;;;;4964484;28;20042;-82
2022/05/25 10:51:10;;;;;;;8.02;2.58;;;17.50;99.90;;;;;;4966125;28;20524;-83
2022/05/25 10:54:45;;;;;;;7.90;2.50;;;17.50;99.90;;;;;;4988582;28;20523;-82
2022/05/25 10:57:56;;;;;;;9.23;2.60;;;18.00;99.90;;;;;;4916820;29;20409;-82
2022/05/25 11:00:42;;;;;;;7.97;2.72;;;17.30;99.90;;;;;;4983218;28;20141;-84
2022/05/25 11:03:36;;;;;;;7.93;2.30;;;17.10;99.90;;;;;;4985896;28;20125;-82
2022/05/25 11:06:28;;;;;;;7.38;2.30;;;17.10;99.90;;;;;;4988305;28;20038;-82
2022/05/25 11:09:22;;;;;;;6.40;2.10;;;17.00;99.90;;;;;;4991870;28;20050;-82
2022/05/25 11:12:20;;;;;;;6.70;2.20;;;16.90;99.90;;;;;;4966705;28;20046;-83
2022/05/25 11:15:23;;;;;;;7.32;2.10;;;16.80;99.90;;;;;;4959337;28;20544;-82
2022/05/25 11:18:04;;;;;;;8.63;2.65;;;16.60;99.90;;;;;;5001059;28;20394;-85
2022/05/25 11:20:47;;;;;;;8.45;2.83;;;16.30;99.90;;;;;;4987456;28;20129;-81
2022/05/25 11:23:39;;;;;;;7.85;2.72;;;16.30;99.90;;;;;;4990899;28;20046;-81
2022/05/25 11:26:05;;;;;;;8.18;2.97;;;16.10;99.90;;;;;;4985408;28;20074;-81
2022/05/25 11:28:59;;;;;;;9.55;3.17;;;15.90;99.90;;;;;;4977534;28;20070;-80
2022/05/25 11:31:36;;;;;;;9.93;3.63;;;15.80;99.90;;;;;;4974021;28;20130;-82
2022/05/25 11:34:26;;;;;;;8.02;3.20;;;15.70;99.90;;;;;;4981879;28;20034;-81
2022/05/25 11:37:16;;;;;;;10.23;3.80;;;16.00;99.90;;;;;;4989946;28;20093;-79
2022/05/25 11:40:01;;;;;;;11.15;4.05;;;16.10;99.90;;;;;;4982298;28;20493;-80
2022/05/25 11:42:39;;;;;;;10.52;3.90;;;16.20;99.90;;;;;;4983963;28;20050;-81
2022/05/25 11:45:35;;;;;;;11.82;3.95;;;16.50;99.90;;;;;;4987854;28;20053;-82
2022/05/25 11:48:20;;;;;;;9.23;4.35;;;16.70;99.90;;;;;;4971246;28;20173;-82
2022/05/25 11:51:07;;;;;;;10.35;4.50;;;16.70;99.90;;;;;;4988265;28;20044;-81
2022/05/25 11:53:50;;;;;;;11.98;4.95;;;17.00;99.90;;;;;;4975162;28;20052;-81
2022/05/25 11:56:37;;;;;;;10.18;4.53;;;17.60;99.90;;;;;;4990012;28;20042;-82
2022/05/25 11:59:36;;;;;;;10.45;5.07;;;17.30;99.90;;;;;;4981609;28;20069;-82
2022/05/25 12:02:42;;;;;;;11.82;5.07;;;17.30;99.90;;;;;;4987299;28;20121;-80
2022/05/25 12:05:14;;;;;;;11.55;4.78;;;;;;;;;;4983685;28;20598;-81
2022/05/25 12:08:08;;;;;;;10.32;4.55;;;17.60;99.90;;;;;;4980459;28;20042;-81
2022/05/25 12:11:02;;;;;;;9.18;4.18;;;17.20;99.90;;;;;;4985634;28;20669;-82
2022/05/25 12:13:47;;;;;;;9.00;4.28;;;17.10;99.90;;;;;;4986779;28;20113;-82
2022/05/25 12:16:26;;;;;;;8.48;4.03;;;17.10;99.90;;;;;;4985001;28;20512;-82
2022/05/25 12:19:17;;;;;;;8.07;3.30;;;17.10;99.90;;;;;;4983694;28;20039;-83
2022/05/25 12:22:06;;;;;;;8.20;2.47;;;17.10;99.90;;;;;;4971555;28;20078;-83
2022/05/25 12:24:45;;;;;;;6.47;2.10;;;17.20;99.90;;;;;;4955343;28;20225;-83
2022/05/25 12:27:25;;;;;;;6.57;2.22;;;17.50;99.90;;;;;;4994568;28;20047;-83
2022/05/25 12:30:34;;;;;;;7.53;2.40;;;17.50;99.90;;;;;;4979637;28;20121;-84
2022/05/25 12:33:07;;;;;;;8.18;2.75;;;17.60;99.90;;;;;;4982274;28;20409;-82
2022/05/25 12:35:42;;;;;;;10.65;3.25;;;17.70;99.90;;;;;;4984011;28;20046;-84
2022/05/25 12:38:31;;;;;;;8.18;3.03;;;17.70;99.90;;;;;;4961177;28;20512;-84
2022/05/25 12:41:38;;;;;;;8.32;3.13;;;18.20;99.90;;;;;;4995149;28;20058;-84
2022/05/25 12:50:43;;;;;;;7.50;2.85;;;17.90;99.90;;;;;;4975909;28;20124;-82
2022/05/25 12:53:38;;;;;;;8.55;2.90;;;18.00;99.90;;;;;;4979324;28;20081;-82
2022/05/25 12:59:12;;;;;;;7.85;2.72;;;17.90;99.90;;;;;;4964632;28;20136;-81
2022/05/25 13:02:12;;;;;;;8.00;2.58;;;17.80;99.90;;;;;;4984770;28;20296;-82
2022/05/25 13:04:59;;;;;;;5.90;2.00;;;17.60;99.90;;;;;;4966092;28;20050;-82
2022/05/25 13:07:49;;;;;;;9.05;2.05;;;17.60;99.90;;;;;;4984065;28;20505;-83
2022/05/25 13:10:39;;;;;;;4.38;1.60;;;18.10;99.90;;;;;;4969769;28;20579;-84
2022/05/25 13:13:41;;;;;;;6.80;1.48;;;17.80;99.90;;;;;;4948866;28;20473;-83
2022/05/25 13:16:45;;;;;;;4.65;1.50;;;17.70;99.90;;;;;;4894269;29;20132;-84
2022/05/25 13:19:42;;;;;;;6.90;1.73;;;18.00;99.90;;;;;;4968012;28;20054;-82
2022/05/25 13:22:17;;;;;;;5.60;1.40;;;18.10;99.90;;;;;;4986579;28;20059;-83
2022/05/25 13:25:10;;;;;;;7.32;1.70;;;18.20;99.90;;;;;;4946362;28;20054;-86
2022/05/25 13:27:45;;;;;;;7.15;1.52;;;19.00;99.90;;;;;;4942919;28;20046;-84
2022/05/25 13:30:39;;;;;;;6.88;1.60;;;19.50;99.90;;;;;;4949158;28;20059;-82
2022/05/25 13:33:20;;;;;;;5.28;1.40;;;18.50;99.90;;;;;;4969200;28;20049;-83
2022/05/25 13:35:56;;;;;;;6.53;1.67;;;18.40;99.90;;;;;;4954629;28;20042;-83
2022/05/25 13:38:43;;;;;;;6.65;1.60;;;18.20;99.90;;;;;;4952317;28;20046;-83
2022/05/25 13:41:22;;;;;;;5.45;1.50;;;17.40;99.90;;;;;;4948961;28;20185;-83
2022/05/25 13:43:51;;;;;;;5.85;1.55;;;17.80;99.90;;;;;;4949223;28;20058;-82
2022/05/25 13:46:35;;;;;;;5.60;1.30;;;17.80;99.90;;;;;;4985070;28;20042;-84
2022/05/25 13:49:06;;;;;;;5.22;1.23;;;17.80;99.90;;;;;;4967401;28;20052;-83
2022/05/25 13:51:36;;;;;;;5.50;1.40;;;17.70;99.90;;;;;;4949227;28;20605;-84
2022/05/25 13:54:31;;;;;;;5.38;1.20;;;17.90;99.90;;;;;;4951635;28;20684;-84
2022/05/25 13:57:03;;;;;;;3.42;1.25;;;17.60;99.90;;;;;;4960549;28;20398;-84
2022/05/25 13:59:44;;;;;;;4.57;1.30;;;17.60;99.90;;;;;;4958821;28;20043;-84
2022/05/25 14:02:24;;;;;;;6.03;1.77;;;17.50;99.90;;;;;;4968272;28;20038;-83
2022/05/25 14:04:58;;;;;;;3.88;1.20;;;15.90;99.90;;;;;;4961207;28;20465;-82
2022/05/25 14:07:43;;;;;;;8.63;1.35;;;17.50;99.90;;;;;;4966197;28;20047;-82
2022/05/25 14:13:31;;;;;;;3.88;1.20;;;17.70;99.90;;;;;;4978994;28;20058;-82
2022/05/25 14:16:07;;;;;;;5.60;1.30;;;17.80;99.90;;;;;;4966521;28;20050;-83
2022/05/25 14:19:05;;;;;;;6.72;1.50;;;17.80;99.90;;;;;;4963114;28;20070;-83
2022/05/25 14:21:37;;;;;;;6.20;1.30;;;17.90;99.90;;;;;;4988251;28;20046;-83